createdAt,value
2024-05-09T00:00:38.587Z,57.13
2024-05-09T00:01:15.052Z,55.42
2024-05-09T00:01:47.229Z,56.47
2024-05-09T00:02:19.288Z,58.30
2024-05-09T00:02:53.947Z,57.33
2024-05-09T00:03:26.412Z,57.42
2024-05-09T00:03:58.611Z,61.40
2024-05-09T00:04:33.246Z,60.22
2024-05-09T00:05:05.698Z,58.45
2024-05-09T00:05:37.997Z,56.10
2024-05-09T00:06:10.348Z,59.78
2024-05-09T00:06:44.955Z,57.50
2024-05-09T00:07:16.955Z,59.60
2024-05-09T00:07:49.005Z,57.00
2024-05-09T00:08:21.171Z,60.40
2024-05-09T00:08:55.854Z,61.70
2024-05-09T00:09:27.887Z,61.55
2024-05-09T00:10:00.036Z,61.15
2024-05-09T00:10:36.724Z,61.00
2024-05-09T00:11:16.334Z,61.50
2024-05-09T00:11:48.448Z,60.92
2024-05-09T00:12:20.732Z,63.47
2024-05-09T00:12:53.019Z,64.47
2024-05-09T00:13:27.698Z,63.45
2024-05-09T00:13:59.719Z,65.18
2024-05-09T00:14:31.948Z,63.72
2024-05-09T00:15:07.784Z,66.47
2024-05-09T00:15:39.827Z,66.72
2024-05-09T00:16:11.837Z,66.32
2024-05-09T00:16:44.096Z,67.07
2024-05-09T00:17:18.788Z,65.65
2024-05-09T00:17:51.062Z,66.85
2024-05-09T00:18:23.598Z,62.88
2024-05-09T00:18:58.497Z,63.65
2024-05-09T00:19:30.627Z,62.53
2024-05-09T00:20:05.193Z,63.38
2024-05-09T00:20:43.647Z,62.90
2024-05-09T00:21:15.807Z,61.80
2024-05-09T00:21:47.876Z,61.20
2024-05-09T00:22:20.178Z,61.95
2024-05-09T00:22:54.851Z,62.05
2024-05-09T00:23:27.034Z,61.28
2024-05-09T00:23:59.067Z,61.72
2024-05-09T00:24:33.681Z,62.15
2024-05-09T00:25:06.088Z,60.50
2024-05-09T00:25:38.785Z,60.35
2024-05-09T00:26:10.941Z,59.03
2024-05-09T00:26:45.623Z,60.97
2024-05-09T00:27:17.657Z,62.78
2024-05-09T00:27:49.654Z,60.10
2024-05-09T00:28:22.127Z,60.88
2024-05-09T00:28:56.736Z,61.45
2024-05-09T00:29:28.862Z,61.47
2024-05-09T00:30:00.960Z,62.60
2024-05-09T00:30:35.862Z,62.67
2024-05-09T00:31:11.741Z,61.08
2024-05-09T00:31:43.823Z,61.13
2024-05-09T00:32:15.881Z,62.13
2024-05-09T00:32:48.251Z,65.18
2024-05-09T00:33:23.245Z,64.43
2024-05-09T00:33:55.811Z,65.00
2024-05-09T00:34:28.083Z,65.57
2024-05-09T00:35:00.298Z,64.53
2024-05-09T00:35:35.145Z,63.75
2024-05-09T00:36:07.699Z,64.22
2024-05-09T00:36:39.729Z,63.58
2024-05-09T00:37:14.420Z,66.22
2024-05-09T00:37:46.481Z,65.03
2024-05-09T00:38:18.639Z,64.75
2024-05-09T00:38:50.675Z,65.38
2024-05-09T00:39:25.280Z,66.47
2024-05-09T00:39:57.337Z,65.80
2024-05-09T00:40:39.593Z,64.68
2024-05-09T00:41:19.649Z,69.40
2024-05-09T00:41:52.130Z,66.55
2024-05-09T00:42:24.259Z,66.78
2024-05-09T00:42:56.322Z,68.03
2024-05-09T00:43:32.595Z,67.03
2024-05-09T00:44:04.861Z,66.75
2024-05-09T00:44:37.107Z,66.82
2024-05-09T00:45:11.808Z,66.75
2024-05-09T00:45:44.387Z,65.72
2024-05-09T00:46:16.783Z,63.55
2024-05-09T00:46:53.336Z,64.20
2024-05-09T00:47:28.110Z,64.63
2024-05-09T00:48:06.474Z,65.57
2024-05-09T00:48:39.787Z,65.18
2024-05-09T00:49:15.494Z,66.18
2024-05-09T00:49:48.503Z,68.47
2024-05-09T00:50:29.416Z,68.50
2024-05-09T00:51:06.695Z,70.45
2024-05-09T00:51:43.973Z,69.57
2024-05-09T00:52:16.193Z,70.65
2024-05-09T00:52:48.759Z,70.43
2024-05-09T00:53:21.061Z,70.28
2024-05-09T00:53:56.150Z,72.50
2024-05-09T00:54:29.283Z,69.95
2024-05-09T00:55:01.495Z,70.68
2024-05-09T00:55:35.638Z,70.50
2024-05-09T00:56:11.672Z,72.30
2024-05-09T00:56:43.819Z,73.10
2024-05-09T00:57:17.221Z,71.43
2024-05-09T00:57:51.845Z,71.95
2024-05-09T00:58:26.379Z,73.32
2024-05-09T00:58:58.549Z,71.45
2024-05-09T00:59:36.096Z,71.57
2024-05-09T01:00:22.379Z,73.55
2024-05-09T01:01:03.416Z,74.45
2024-05-09T01:01:38.380Z,74.57
2024-05-09T01:02:11.041Z,75.10
2024-05-09T01:02:43.256Z,74.95
2024-05-09T01:03:15.693Z,74.50
2024-05-09T01:03:53.237Z,73.85
2024-05-09T01:04:25.437Z,73.63
2024-05-09T01:04:57.801Z,75.15
2024-05-09T01:05:30.148Z,74.68
2024-05-09T01:06:02.270Z,73.47
2024-05-09T01:06:36.984Z,74.22
2024-05-09T01:07:11.119Z,73.97
2024-05-09T01:07:43.682Z,70.53
2024-05-09T01:08:15.813Z,71.47
2024-05-09T01:08:50.670Z,72.32
2024-05-09T01:09:22.756Z,71.07
2024-05-09T01:09:54.813Z,70.20
2024-05-09T01:10:33.677Z,71.85
2024-05-09T01:11:10.400Z,71.95
2024-05-09T01:11:42.658Z,67.68
2024-05-09T01:12:15.059Z,68.88
2024-05-09T01:12:47.181Z,69.35
2024-05-09T01:13:22.198Z,68.25
2024-05-09T01:13:54.407Z,68.50
2024-05-09T01:14:26.515Z,68.10
2024-05-09T01:14:58.622Z,67.25
2024-05-09T01:15:33.457Z,68.40
2024-05-09T01:16:05.977Z,66.00
2024-05-09T01:16:38.619Z,66.60
2024-05-09T01:17:13.628Z,67.07
2024-05-09T01:17:46.781Z,68.45
2024-05-09T01:18:19.124Z,68.85
2024-05-09T01:18:51.312Z,66.47
2024-05-09T01:19:32.095Z,67.10
2024-05-09T01:20:06.211Z,67.85
2024-05-09T01:20:43.195Z,69.25
2024-05-09T01:21:17.207Z,67.78
2024-05-09T01:21:51.997Z,68.15
2024-05-09T01:22:25.967Z,70.50
2024-05-09T01:22:59.530Z,67.78
2024-05-09T01:23:34.320Z,71.72
2024-05-09T01:24:06.515Z,69.90
2024-05-09T01:24:38.545Z,71.70
2024-05-09T01:25:10.601Z,71.13
2024-05-09T01:25:46.557Z,73.72
2024-05-09T01:26:19.108Z,69.75
2024-05-09T01:26:51.217Z,70.38
2024-05-09T01:27:25.839Z,71.95
2024-05-09T01:27:57.850Z,71.90
2024-05-09T01:28:29.896Z,71.45
2024-05-09T01:29:01.965Z,71.40
2024-05-09T01:29:36.632Z,69.82
2024-05-09T01:30:09.627Z,70.55
2024-05-09T01:30:46.743Z,70.13
2024-05-09T01:31:21.335Z,68.55
2024-05-09T01:31:53.457Z,71.38
2024-05-09T01:32:25.722Z,71.85
2024-05-09T01:33:00.625Z,69.88
2024-05-09T01:33:33.406Z,71.30
2024-05-09T01:34:05.822Z,70.45
2024-05-09T01:34:40.500Z,71.78
2024-05-09T01:35:12.601Z,70.78
2024-05-09T01:35:45.113Z,70.35
2024-05-09T01:36:17.322Z,72.38
2024-05-09T01:36:52.050Z,71.30
2024-05-09T01:37:24.047Z,72.83
2024-05-09T01:37:56.152Z,72.30
2024-05-09T01:38:28.404Z,72.40
2024-05-09T01:39:03.207Z,72.28
2024-05-09T01:39:35.299Z,75.70
2024-05-09T01:40:15.004Z,75.43
2024-05-09T01:40:53.183Z,75.22
2024-05-09T01:41:25.317Z,76.40
2024-05-09T01:41:57.388Z,75.65
2024-05-09T01:42:29.380Z,72.53
2024-05-09T01:43:04.041Z,74.80
2024-05-09T01:43:36.144Z,75.68
2024-05-09T01:44:08.267Z,76.03
2024-05-09T01:44:40.388Z,76.00
2024-05-09T01:45:15.245Z,74.70
2024-05-09T01:45:47.296Z,76.85
2024-05-09T01:46:19.496Z,75.25
2024-05-09T01:46:51.550Z,75.10
2024-05-09T01:47:26.366Z,74.90
2024-05-09T01:47:58.919Z,75.35
2024-05-09T01:48:31.290Z,75.22
2024-05-09T01:49:04.581Z,72.88
2024-05-09T01:49:40.374Z,73.95
2024-05-09T01:50:16.348Z,72.90
2024-05-09T01:50:48.620Z,71.78
2024-05-09T01:51:20.746Z,72.65
2024-05-09T01:51:55.404Z,70.70
2024-05-09T01:52:27.582Z,72.82
2024-05-09T01:52:59.707Z,72.95
2024-05-09T01:53:34.399Z,73.78
2024-05-09T01:54:06.516Z,74.18
2024-05-09T01:54:38.606Z,74.75
2024-05-09T01:55:10.667Z,75.22
2024-05-09T01:55:45.771Z,74.88
2024-05-09T01:56:49.794Z,74.30
2024-05-09T01:57:22.033Z,73.85
2024-05-09T01:57:57.597Z,74.03
2024-05-09T01:58:30.805Z,73.40
2024-05-09T01:59:02.916Z,74.05
2024-05-09T01:59:36.302Z,74.63
2024-05-09T02:00:15.592Z,73.38
2024-05-09T02:00:47.767Z,73.85
2024-05-09T02:01:19.837Z,74.85
2024-05-09T02:01:56.849Z,72.32
2024-05-09T02:02:32.515Z,71.05
2024-05-09T02:03:05.202Z,71.30
2024-05-09T02:03:37.482Z,68.88
2024-05-09T02:04:09.956Z,67.50
2024-05-09T02:04:45.258Z,67.40
2024-05-09T02:05:50.141Z,71.25
2024-05-09T02:06:22.426Z,70.18
2024-05-09T02:06:57.083Z,68.90
2024-05-09T02:07:29.131Z,71.47
2024-05-09T02:08:01.302Z,71.38
2024-05-09T02:08:33.601Z,69.80
2024-05-09T02:09:08.272Z,70.55
2024-05-09T02:09:40.339Z,72.32
2024-05-09T02:10:20.132Z,71.22
2024-05-09T02:10:57.943Z,69.78
2024-05-09T02:11:30.200Z,70.10
2024-05-09T02:12:02.388Z,71.72
2024-05-09T02:12:34.686Z,70.22
2024-05-09T02:13:10.263Z,72.20
2024-05-09T02:13:42.273Z,66.88
2024-05-09T02:14:14.377Z,68.43
2024-05-09T02:14:46.545Z,69.32
2024-05-09T02:15:21.129Z,69.20
2024-05-09T02:15:53.300Z,67.25
2024-05-09T02:16:25.322Z,67.50
2024-05-09T02:17:00.018Z,68.57
2024-05-09T02:17:32.196Z,66.57
2024-05-09T02:18:04.954Z,65.82
2024-05-09T02:18:37.128Z,65.53
2024-05-09T02:19:12.016Z,66.15
2024-05-09T02:19:44.177Z,64.00
2024-05-09T02:20:22.734Z,64.10
2024-05-09T02:21:04.518Z,66.80
2024-05-09T02:21:36.891Z,64.07
2024-05-09T02:22:08.916Z,64.88
2024-05-09T02:22:40.938Z,65.78
2024-05-09T02:23:15.749Z,64.10
2024-05-09T02:23:47.802Z,65.65
2024-05-09T02:24:19.806Z,64.50
2024-05-09T02:24:51.991Z,64.80
2024-05-09T02:25:27.444Z,64.63
2024-05-09T02:25:59.501Z,63.92
2024-05-09T02:26:31.694Z,63.47
2024-05-09T02:27:06.621Z,66.10
2024-05-09T02:27:38.682Z,63.50
2024-05-09T02:28:10.661Z,65.30
2024-05-09T02:28:42.708Z,65.47
2024-05-09T02:29:17.374Z,66.30
2024-05-09T02:29:49.434Z,66.53
2024-05-09T02:30:29.997Z,65.70
2024-05-09T02:31:13.229Z,65.53
2024-05-09T02:31:48.244Z,63.58
2024-05-09T02:32:20.727Z,66.05
2024-05-09T02:32:53.014Z,65.35
2024-05-09T02:33:25.353Z,64.55
2024-05-09T02:33:57.681Z,65.35
2024-05-09T02:34:32.632Z,66.10
2024-05-09T02:35:05.015Z,67.68
2024-05-09T02:35:37.122Z,65.43
2024-05-09T02:36:10.283Z,66.38
2024-05-09T02:36:42.315Z,64.88
2024-05-09T02:37:17.034Z,66.65
2024-05-09T02:37:49.095Z,66.40
2024-05-09T02:38:21.302Z,69.75
2024-05-09T02:38:53.333Z,69.53
2024-05-09T02:39:25.422Z,68.28
2024-05-09T02:39:57.410Z,66.47
2024-05-09T02:40:36.531Z,69.93
2024-05-09T02:41:13.632Z,67.32
2024-05-09T02:41:45.715Z,67.07
2024-05-09T02:42:17.762Z,67.65
2024-05-09T02:42:49.822Z,67.80
2024-05-09T02:43:21.890Z,68.93
2024-05-09T02:43:53.991Z,69.20
2024-05-09T02:44:26.157Z,70.47
2024-05-09T02:44:58.254Z,72.07
2024-05-09T02:45:33.117Z,72.38
2024-05-09T02:46:06.932Z,71.50
2024-05-09T02:46:39.005Z,72.55
2024-05-09T02:47:11.147Z,71.95
2024-05-09T02:47:43.390Z,72.97
2024-05-09T02:48:18.339Z,72.38
2024-05-09T02:48:50.574Z,72.22
2024-05-09T02:49:22.860Z,74.10
2024-05-09T02:49:55.108Z,73.43
2024-05-09T02:50:34.455Z,74.28
2024-05-09T02:51:11.003Z,73.32
2024-05-09T02:51:43.089Z,73.18
2024-05-09T02:52:21.225Z,74.05
2024-05-09T02:52:53.336Z,72.05
2024-05-09T02:53:25.466Z,75.88
2024-05-09T02:53:57.604Z,77.00
2024-05-09T02:54:29.659Z,75.15
2024-05-09T02:55:01.665Z,74.85
2024-05-09T02:55:34.653Z,75.95
2024-05-09T02:56:09.657Z,75.35
2024-05-09T02:56:41.767Z,73.50
2024-05-09T02:57:13.858Z,76.22
2024-05-09T02:57:45.931Z,72.93
2024-05-09T02:58:18.013Z,77.82
2024-05-09T02:58:50.105Z,77.00
2024-05-09T02:59:24.881Z,77.25
2024-05-09T02:59:56.966Z,77.60
2024-05-09T03:00:37.666Z,76.60
2024-05-09T03:01:12.792Z,76.35
2024-05-09T03:01:45.035Z,75.18
2024-05-09T03:02:17.186Z,74.95
2024-05-09T03:02:51.969Z,75.80
2024-05-09T03:03:24.596Z,75.85
2024-05-09T03:03:56.971Z,73.40
2024-05-09T03:04:29.134Z,72.13
2024-05-09T03:05:01.445Z,75.93
2024-05-09T03:05:33.714Z,74.88
2024-05-09T03:06:05.883Z,73.78
2024-05-09T03:06:46.149Z,72.50
2024-05-09T03:07:20.222Z,74.95
2024-05-09T03:07:52.439Z,75.35
2024-05-09T03:08:24.956Z,71.60
2024-05-09T03:08:56.981Z,72.35
2024-05-09T03:09:29.161Z,72.13
2024-05-09T03:10:01.202Z,73.20
2024-05-09T03:10:36.560Z,72.65
2024-05-09T03:11:13.220Z,73.63
2024-05-09T03:11:46.035Z,71.55
2024-05-09T03:12:18.228Z,73.05
2024-05-09T03:12:50.264Z,73.97
2024-05-09T03:13:22.412Z,73.90
2024-05-09T03:13:55.280Z,73.53
2024-05-09T03:14:31.403Z,73.57
2024-05-09T03:15:03.737Z,70.93
2024-05-09T03:15:35.834Z,71.72
2024-05-09T03:16:08.050Z,72.60
2024-05-09T03:16:40.090Z,72.22
2024-05-09T03:17:12.258Z,71.63
2024-05-09T03:17:44.810Z,71.72
2024-05-09T03:18:20.033Z,72.45
2024-05-09T03:18:52.139Z,72.63
2024-05-09T03:19:24.259Z,72.30
2024-05-09T03:19:56.342Z,70.95
2024-05-09T03:20:33.843Z,72.85
2024-05-09T03:21:08.044Z,71.60
2024-05-09T03:21:40.574Z,74.07
2024-05-09T03:22:15.154Z,76.07
2024-05-09T03:22:47.182Z,75.10
2024-05-09T03:23:19.296Z,76.10
2024-05-09T03:23:51.416Z,79.47
2024-05-09T03:24:23.446Z,79.00
2024-05-09T03:24:55.521Z,77.57
2024-05-09T03:25:27.542Z,80.03
2024-05-09T03:26:02.256Z,81.45
2024-05-09T03:26:34.601Z,83.10
2024-05-09T03:27:06.738Z,83.35
2024-05-09T03:27:38.760Z,81.53
2024-05-09T03:28:11.642Z,82.70
2024-05-09T03:28:43.962Z,80.15
2024-05-09T03:29:18.849Z,79.88
2024-05-09T03:29:51.208Z,79.15
2024-05-09T03:30:31.249Z,78.38
2024-05-09T03:31:12.696Z,76.18
2024-05-09T03:31:44.855Z,75.93
2024-05-09T03:32:17.274Z,76.80
2024-05-09T03:32:51.995Z,76.72
2024-05-09T03:33:24.476Z,75.43
2024-05-09T03:33:56.841Z,75.22
2024-05-09T03:34:29.039Z,75.43
2024-05-09T03:35:01.111Z,80.93
2024-05-09T03:35:33.262Z,78.55
2024-05-09T03:36:09.782Z,79.93
2024-05-09T03:36:45.713Z,81.13
2024-05-09T03:37:20.349Z,79.88
2024-05-09T03:37:52.526Z,79.30
2024-05-09T03:38:24.750Z,78.90
2024-05-09T03:38:56.786Z,77.03
2024-05-09T03:39:31.380Z,78.45
2024-05-09T03:40:05.551Z,77.60
2024-05-09T03:40:49.577Z,77.00
2024-05-09T03:41:22.359Z,76.90
2024-05-09T03:41:57.317Z,77.18
2024-05-09T03:42:29.363Z,75.68
2024-05-09T03:43:01.407Z,76.35
2024-05-09T03:43:33.427Z,77.80
2024-05-09T03:44:08.157Z,74.57
2024-05-09T03:44:40.448Z,74.28
2024-05-09T03:45:12.572Z,77.07
2024-05-09T03:45:45.506Z,76.80
2024-05-09T03:46:17.648Z,76.45
2024-05-09T03:46:52.294Z,76.03
2024-05-09T03:47:24.445Z,75.97
2024-05-09T03:47:56.880Z,77.03
2024-05-09T03:48:30.169Z,75.47
2024-05-09T03:49:02.397Z,77.68
2024-05-09T03:49:34.671Z,78.40
2024-05-09T03:50:12.128Z,76.97
2024-05-09T03:50:47.795Z,79.03
2024-05-09T03:51:22.468Z,78.90
2024-05-09T03:51:54.465Z,81.07
2024-05-09T03:52:26.532Z,82.35
2024-05-09T03:52:58.605Z,83.28
2024-05-09T03:53:30.825Z,83.47
2024-05-09T03:54:02.919Z,83.88
2024-05-09T03:54:35.503Z,84.25
2024-05-09T03:55:10.287Z,85.72
2024-05-09T03:55:42.634Z,81.32
2024-05-09T03:56:14.723Z,80.47
2024-05-09T03:56:47.009Z,81.68
2024-05-09T03:57:19.072Z,82.15
2024-05-09T03:57:51.697Z,78.75
2024-05-09T03:58:23.751Z,80.57
2024-05-09T03:58:59.012Z,78.78
2024-05-09T03:59:31.225Z,76.95
2024-05-09T04:00:05.544Z,77.65
2024-05-09T04:00:47.100Z,76.93
2024-05-09T04:01:19.186Z,77.45
2024-05-09T04:01:51.272Z,79.35
2024-05-09T04:02:25.969Z,77.97
2024-05-09T04:02:59.885Z,79.50
2024-05-09T04:03:32.223Z,81.70
2024-05-09T04:04:04.528Z,83.07
2024-05-09T04:04:36.735Z,83.50
2024-05-09T04:05:09.769Z,83.15
2024-05-09T04:05:45.968Z,84.80
2024-05-09T04:06:25.568Z,88.40
2024-05-09T04:06:57.621Z,86.80
2024-05-09T04:07:29.697Z,84.60
2024-05-09T04:08:01.909Z,86.25
2024-05-09T04:08:34.247Z,84.30
2024-05-09T04:09:06.417Z,83.80
2024-05-09T04:09:41.193Z,82.70
2024-05-09T04:10:21.160Z,82.32
2024-05-09T04:10:59.919Z,81.75
2024-05-09T04:11:32.867Z,77.93
2024-05-09T04:12:07.666Z,76.57
2024-05-09T04:12:41.308Z,76.45
2024-05-09T04:13:15.946Z,78.20
2024-05-09T04:13:48.629Z,77.65
2024-05-09T04:14:20.764Z,76.93
2024-05-09T04:14:52.863Z,73.18
2024-05-09T04:15:24.884Z,74.32
2024-05-09T04:15:56.885Z,74.70
2024-05-09T04:16:31.593Z,78.10
2024-05-09T04:17:03.674Z,77.53
2024-05-09T04:17:35.960Z,76.60
2024-05-09T04:18:08.416Z,76.25
2024-05-09T04:18:40.856Z,76.22
2024-05-09T04:19:13.159Z,73.82
2024-05-09T04:19:45.236Z,76.00
2024-05-09T04:20:24.802Z,77.75
2024-05-09T04:21:09.469Z,77.43
2024-05-09T04:21:41.606Z,76.30
2024-05-09T04:22:13.628Z,77.40
2024-05-09T04:22:45.673Z,78.50
2024-05-09T04:23:17.845Z,74.90
2024-05-09T04:23:49.924Z,77.00
2024-05-09T04:24:22.000Z,74.38
2024-05-09T04:24:54.085Z,74.90
2024-05-09T04:25:28.669Z,77.07
2024-05-09T04:26:04.299Z,76.65
2024-05-09T04:26:36.394Z,76.32
2024-05-09T04:27:09.386Z,77.13
2024-05-09T04:27:41.470Z,77.03
2024-05-09T04:28:13.982Z,75.13
2024-05-09T04:28:46.189Z,75.95
2024-05-09T04:29:20.931Z,74.25
2024-05-09T04:29:52.983Z,74.65
2024-05-09T04:30:35.960Z,73.20
2024-05-09T04:31:11.145Z,74.20
2024-05-09T04:31:43.277Z,73.03
2024-05-09T04:32:17.952Z,73.40
2024-05-09T04:32:50.858Z,73.38
2024-05-09T04:33:23.134Z,74.63
2024-05-09T04:33:55.666Z,73.90
2024-05-09T04:34:27.886Z,73.20
2024-05-09T04:34:59.994Z,74.57
2024-05-09T04:35:32.392Z,74.97
2024-05-09T04:36:07.564Z,73.38
2024-05-09T04:36:42.472Z,73.22
2024-05-09T04:37:16.050Z,72.22
2024-05-09T04:37:49.096Z,72.88
2024-05-09T04:38:21.555Z,71.50
2024-05-09T04:38:53.609Z,71.95
2024-05-09T04:39:28.193Z,72.55
2024-05-09T04:40:00.360Z,71.63
2024-05-09T04:40:35.556Z,71.60
2024-05-09T04:41:09.193Z,70.68
2024-05-09T04:41:41.301Z,70.80
2024-05-09T04:42:15.982Z,70.07
2024-05-09T04:42:48.004Z,71.57
2024-05-09T04:43:21.204Z,72.05
2024-05-09T04:43:53.244Z,71.30
2024-05-09T04:44:25.378Z,71.45
2024-05-09T04:44:58.791Z,71.00
2024-05-09T04:45:31.085Z,69.60
2024-05-09T04:46:03.221Z,72.50
2024-05-09T04:46:39.665Z,72.00
2024-05-09T04:47:11.863Z,70.53
2024-05-09T04:47:44.181Z,69.57
2024-05-09T04:48:16.784Z,72.65
2024-05-09T04:48:49.240Z,70.85
2024-05-09T04:49:21.593Z,71.25
2024-05-09T04:49:53.807Z,72.85
2024-05-09T04:50:36.277Z,71.00
2024-05-09T04:51:10.890Z,73.60
2024-05-09T04:51:42.949Z,71.70
2024-05-09T04:52:15.326Z,72.80
2024-05-09T04:52:47.424Z,72.07
2024-05-09T04:53:19.738Z,71.90
2024-05-09T04:53:51.800Z,71.05
2024-05-09T04:54:33.662Z,72.10
2024-05-09T04:55:10.910Z,72.00
2024-05-09T04:55:43.351Z,73.10
2024-05-09T04:56:15.456Z,72.45
2024-05-09T04:56:47.656Z,70.93
2024-05-09T04:57:19.777Z,72.00
2024-05-09T04:57:54.970Z,70.13
2024-05-09T04:58:27.104Z,68.30
2024-05-09T04:58:59.153Z,68.18
2024-05-09T04:59:31.467Z,68.95
2024-05-09T05:00:09.346Z,68.32
2024-05-09T05:00:46.263Z,67.68
2024-05-09T05:01:20.969Z,67.32
2024-05-09T05:01:53.122Z,68.25
2024-05-09T05:02:25.304Z,67.93
2024-05-09T05:02:57.551Z,66.55
2024-05-09T05:03:30.171Z,68.55
2024-05-09T05:04:02.521Z,69.97
2024-05-09T05:04:34.691Z,67.57
2024-05-09T05:05:10.319Z,68.20
2024-05-09T05:05:45.178Z,67.93
2024-05-09T05:06:17.991Z,64.80
2024-05-09T05:06:50.002Z,66.10
2024-05-09T05:07:22.305Z,64.57
2024-05-09T05:07:54.470Z,64.53
2024-05-09T05:08:29.651Z,63.90
2024-05-09T05:09:01.725Z,62.67
2024-05-09T05:09:33.729Z,62.25
2024-05-09T05:10:09.436Z,62.72
2024-05-09T05:10:44.577Z,65.03
2024-05-09T05:11:16.803Z,62.75
2024-05-09T05:11:49.026Z,62.45
2024-05-09T05:12:39.712Z,62.33
2024-05-09T05:13:24.804Z,64.53
2024-05-09T05:13:57.264Z,63.15
2024-05-09T05:14:29.491Z,63.75
2024-05-09T05:15:01.537Z,64.70
2024-05-09T05:15:33.737Z,63.53
2024-05-09T05:16:08.555Z,65.22
2024-05-09T05:16:40.579Z,64.03
2024-05-09T05:17:12.872Z,64.25
2024-05-09T05:17:45.134Z,63.63
2024-05-09T05:18:18.782Z,62.95
2024-05-09T05:18:51.191Z,62.63
2024-05-09T05:19:23.335Z,61.85
2024-05-09T05:19:56.714Z,61.20
2024-05-09T05:20:33.761Z,60.83
2024-05-09T05:21:06.502Z,60.97
2024-05-09T05:21:38.663Z,59.03
2024-05-09T05:22:10.671Z,59.97
2024-05-09T05:22:43.568Z,59.30
2024-05-09T05:23:21.761Z,57.50
2024-05-09T05:23:53.898Z,58.22
2024-05-09T05:24:26.006Z,56.30
2024-05-09T05:24:58.032Z,56.42
2024-05-09T05:25:30.104Z,55.17
2024-05-09T05:26:02.224Z,55.17
2024-05-09T05:26:37.061Z,54.53
2024-05-09T05:27:09.206Z,55.63
2024-05-09T05:27:41.254Z,56.70
2024-05-09T05:28:13.622Z,56.95
2024-05-09T05:28:46.557Z,57.20
2024-05-09T05:29:20.956Z,57.72
2024-05-09T05:29:53.077Z,59.13
2024-05-09T05:30:32.794Z,58.45
2024-05-09T05:31:06.681Z,58.73
2024-05-09T05:31:38.807Z,59.65
2024-05-09T05:32:10.965Z,60.00
2024-05-09T05:32:43.600Z,59.38
2024-05-09T05:33:18.792Z,58.28
2024-05-09T05:33:51.441Z,59.50
2024-05-09T05:34:26.106Z,58.30
2024-05-09T05:34:58.156Z,58.55
2024-05-09T05:35:30.473Z,57.65
2024-05-09T05:36:02.735Z,56.22
2024-05-09T05:36:34.819Z,56.92
2024-05-09T05:37:06.828Z,55.72
2024-05-09T05:37:41.889Z,56.00
2024-05-09T05:38:14.504Z,56.10
2024-05-09T05:38:46.655Z,54.28
2024-05-09T05:39:18.724Z,56.17
2024-05-09T05:39:50.768Z,56.60
2024-05-09T05:40:32.060Z,57.67
2024-05-09T05:41:08.065Z,59.75
2024-05-09T05:41:42.705Z,59.75
2024-05-09T05:42:14.887Z,63.88
2024-05-09T05:42:46.939Z,62.35
2024-05-09T05:43:19.328Z,62.47
2024-05-09T05:43:51.378Z,65.15
2024-05-09T05:44:23.618Z,66.57
2024-05-09T05:44:55.634Z,65.55
2024-05-09T05:45:30.273Z,65.20
2024-05-09T05:46:02.330Z,64.90
2024-05-09T05:46:34.341Z,63.72
2024-05-09T05:47:06.529Z,65.32
2024-05-09T05:47:38.856Z,65.68
2024-05-09T05:48:11.234Z,66.00
2024-05-09T05:48:43.454Z,62.45
2024-05-09T05:49:16.767Z,62.25
2024-05-09T05:49:51.539Z,64.82
2024-05-09T05:50:32.837Z,63.40
2024-05-09T05:51:08.318Z,65.32
2024-05-09T05:51:40.373Z,68.03
2024-05-09T05:52:12.413Z,65.95
2024-05-09T05:52:44.568Z,65.53
2024-05-09T05:53:19.271Z,64.82
2024-05-09T05:53:51.465Z,65.70
2024-05-09T05:54:23.764Z,69.07
2024-05-09T05:54:55.880Z,68.88
2024-05-09T05:55:27.903Z,72.35
2024-05-09T05:56:00.010Z,72.32
2024-05-09T05:56:32.226Z,70.13
2024-05-09T05:57:07.206Z,68.47
2024-05-09T05:57:39.329Z,70.65
2024-05-09T05:58:12.456Z,70.32
2024-05-09T05:58:44.774Z,70.53
2024-05-09T05:59:16.920Z,71.47
2024-05-09T05:59:48.988Z,69.72
2024-05-09T06:00:29.955Z,70.63
2024-05-09T06:01:09.405Z,67.68
2024-05-09T06:01:41.424Z,68.93
2024-05-09T06:02:13.872Z,68.28
2024-05-09T06:02:46.047Z,70.93
2024-05-09T06:03:20.720Z,69.43
2024-05-09T06:03:52.969Z,70.55
2024-05-09T06:04:25.094Z,70.45
2024-05-09T06:04:57.307Z,70.25
2024-05-09T06:05:29.454Z,71.15
2024-05-09T06:06:03.271Z,69.30
2024-05-09T06:06:35.355Z,70.75
2024-05-09T06:07:10.021Z,68.28
2024-05-09T06:07:42.032Z,68.40
2024-05-09T06:08:14.339Z,66.82
2024-05-09T06:08:46.654Z,65.75
2024-05-09T06:09:18.735Z,67.13
2024-05-09T06:09:50.949Z,69.00
2024-05-09T06:10:29.619Z,70.18
2024-05-09T06:11:09.638Z,68.82
2024-05-09T06:11:42.797Z,68.10
2024-05-09T06:12:15.148Z,66.93
2024-05-09T06:12:47.358Z,68.47
2024-05-09T06:13:20.479Z,68.57
2024-05-09T06:13:52.512Z,69.07
2024-05-09T06:14:27.830Z,67.70
2024-05-09T06:15:00.636Z,67.93
2024-05-09T06:15:32.685Z,67.97
2024-05-09T06:16:05.192Z,67.20
2024-05-09T06:16:37.305Z,65.97
2024-05-09T06:17:09.387Z,69.15
2024-05-09T06:17:44.323Z,70.38
2024-05-09T06:18:16.663Z,69.18
2024-05-09T06:18:48.915Z,68.60
2024-05-09T06:19:21.192Z,66.75
2024-05-09T06:19:53.733Z,67.25
2024-05-09T06:20:34.706Z,68.13
2024-05-09T06:21:12.006Z,70.07
2024-05-09T06:21:44.254Z,70.65
2024-05-09T06:22:16.390Z,67.55
2024-05-09T06:22:48.424Z,68.72
2024-05-09T06:23:20.608Z,69.55
2024-05-09T06:23:53.397Z,70.88
2024-05-09T06:24:25.467Z,71.80
2024-05-09T06:25:00.119Z,71.20
2024-05-09T06:25:32.595Z,69.88
2024-05-09T06:26:05.087Z,70.03
2024-05-09T06:26:37.220Z,71.68
2024-05-09T06:27:09.503Z,71.53
2024-05-09T06:27:41.489Z,70.70
2024-05-09T06:28:16.084Z,69.20
2024-05-09T06:28:48.258Z,71.40
2024-05-09T06:29:20.469Z,67.65
2024-05-09T06:29:52.610Z,66.60
2024-05-09T06:30:34.457Z,66.20
2024-05-09T06:31:10.541Z,64.60
2024-05-09T06:31:43.461Z,65.47
2024-05-09T06:32:18.916Z,67.22
2024-05-09T06:32:51.094Z,70.00
2024-05-09T06:33:23.248Z,69.93
2024-05-09T06:33:55.433Z,70.68
2024-05-09T06:34:27.797Z,70.60
2024-05-09T06:35:00.105Z,71.20
2024-05-09T06:35:32.770Z,71.80
2024-05-09T06:36:08.254Z,73.10
2024-05-09T06:36:40.269Z,74.57
2024-05-09T06:37:12.265Z,72.43
2024-05-09T06:37:44.475Z,72.57
2024-05-09T06:38:16.574Z,72.38
2024-05-09T06:38:48.740Z,72.97
2024-05-09T06:39:23.320Z,69.47
2024-05-09T06:39:55.356Z,69.53
2024-05-09T06:40:36.176Z,72.25
2024-05-09T06:41:11.119Z,72.53
2024-05-09T06:41:43.250Z,74.45
2024-05-09T06:42:17.865Z,74.88
2024-05-09T06:42:50.005Z,77.30
2024-05-09T06:43:22.148Z,77.22
2024-05-09T06:43:54.205Z,76.55
2024-05-09T06:44:26.316Z,74.57
2024-05-09T06:44:58.310Z,72.10
2024-05-09T06:45:30.308Z,74.93
2024-05-09T06:46:04.881Z,77.40
2024-05-09T06:46:40.004Z,74.70
2024-05-09T06:47:12.103Z,75.93
2024-05-09T06:47:44.426Z,77.03
2024-05-09T06:48:19.596Z,75.18
2024-05-09T06:48:52.851Z,76.30
2024-05-09T06:49:29.132Z,73.13
2024-05-09T06:50:01.423Z,73.38
2024-05-09T06:50:37.580Z,70.95
2024-05-09T06:51:11.320Z,72.05
2024-05-09T06:51:43.382Z,69.72
2024-05-09T06:52:15.388Z,69.47
2024-05-09T06:52:47.720Z,70.43
2024-05-09T06:53:25.998Z,70.40
2024-05-09T06:53:58.229Z,68.20
2024-05-09T06:54:31.081Z,69.20
2024-05-09T06:55:03.095Z,70.80
2024-05-09T06:55:36.310Z,69.50
2024-05-09T06:56:08.411Z,72.00
2024-05-09T06:56:40.485Z,72.78
2024-05-09T06:57:15.107Z,71.07
2024-05-09T06:57:47.099Z,71.95
2024-05-09T06:58:19.134Z,74.25
2024-05-09T06:58:51.148Z,74.53
2024-05-09T06:59:23.333Z,75.43
2024-05-09T06:59:59.629Z,73.78
2024-05-09T07:00:38.563Z,74.20
2024-05-09T07:01:15.487Z,73.95
2024-05-09T07:01:47.626Z,74.95
2024-05-09T07:02:19.733Z,71.13
2024-05-09T07:02:52.851Z,72.93
2024-05-09T07:03:25.192Z,71.30
2024-05-09T07:03:57.378Z,74.68
2024-05-09T07:04:32.422Z,73.65
2024-05-09T07:05:05.003Z,70.90
2024-05-09T07:05:37.617Z,72.50
2024-05-09T07:06:09.964Z,73.55
2024-05-09T07:06:42.160Z,73.22
2024-05-09T07:07:14.289Z,74.50
2024-05-09T07:07:46.332Z,71.30
2024-05-09T07:08:21.306Z,70.63
2024-05-09T07:08:53.415Z,64.80
2024-05-09T07:09:25.492Z,66.35
2024-05-09T07:09:57.628Z,66.15
2024-05-09T07:10:34.789Z,64.97
2024-05-09T07:11:08.062Z,65.55
2024-05-09T07:11:42.942Z,63.03
2024-05-09T07:12:15.295Z,62.92
2024-05-09T07:12:47.447Z,64.55
2024-05-09T07:13:19.453Z,65.72